Time;durP1;ratioP1;P1;durP2;ratioP2;P2;SDS_P1;SDS_P2;PMS_P1;PMS_P2;Temp;Humidity;BMP_temperature;BMP_pressure;BME280_temperature;BME280_humidity;BME280_pressure;Samples;Min_cycle;Max_cycle;Signal;HPM_P1;HPM_P2
2023/05/05 00:01:35;;;;;;;16.88;8.65;;;;;;;-146.07;100.00;70291.31;10363290;28;21403;-76
2023/05/05 00:06:36;;;;;;;16.03;8.67;;;;;;;-146.07;100.00;70291.31;10383621;28;20479;-75
2023/05/05 00:11:36;;;;;;;15.30;8.35;;;;;;;-146.07;100.00;70291.31;10388707;28;20391;-76
2023/05/05 00:16:37;;;;;;;12.73;8.80;;;;;;;-146.07;100.00;70291.31;10398285;28;20074;-76
2023/05/05 00:21:38;;;;;;;13.75;7.93;;;;;;;-146.07;100.00;70291.31;10390290;28;20438;-76
2023/05/05 00:26:38;;;;;;;13.07;7.75;;;;;;;-146.07;100.00;70291.31;10393551;28;20021;-76
2023/05/05 00:31:38;;;;;;;12.20;7.77;;;;;;;-146.07;100.00;70291.31;10395799;28;20029;-76
2023/05/05 00:36:39;;;;;;;15.57;8.10;;;;;;;-146.07;100.00;70291.31;10399386;28;20275;-77
2023/05/05 00:41:39;;;;;;;14.07;7.97;;;;;;;-146.07;100.00;70291.31;10403153;28;20370;-77
2023/05/05 00:46:42;;;;;;;17.35;9.32;;;;;;;-146.07;100.00;70291.31;10401579;28;20487;-77
2023/05/05 00:51:42;;;;;;;17.02;9.07;;;;;;;-146.07;100.00;70291.31;10395714;28;20037;-76
2023/05/05 00:56:42;;;;;;;20.90;10.07;;;;;;;-146.07;100.00;70291.31;10399300;28;20030;-77
2023/05/05 01:01:43;;;;;;;15.50;8.95;;;;;;;-146.07;100.00;70291.31;10398959;28;20630;-76
2023/05/05 01:07:27;;;;;;;17.63;9.75;;;;;;;-146.07;100.00;70291.31;10397120;28;20036;-75
2023/05/05 01:12:39;;;;;;;20.20;9.57;;;;;;;-146.07;100.00;70291.31;10378426;28;20184;-76
2023/05/05 01:18:00;;;;;;;16.50;9.70;;;;;;;-146.07;100.00;70291.31;10382884;28;20056;-76
2023/05/05 01:23:06;;;;;;;16.17;8.95;;;;;;;-146.07;100.00;70291.31;10386792;28;20430;-75
2023/05/05 01:28:44;;;;;;;19.23;8.50;;;;;;;-146.07;100.00;70291.31;10392003;28;20021;-74
2023/05/05 01:34:06;;;;;;;20.52;9.85;;;;;;;-146.07;100.00;70291.31;10415844;28;20059;-74
2023/05/05 01:39:11;;;;;;;18.55;9.02;;;;;;;-146.07;100.00;70291.31;10411571;28;20045;-75
2023/05/05 01:44:15;;;;;;;16.92;9.13;;;;;;;-146.07;100.00;70291.31;10416575;28;20449;-76
2023/05/05 01:49:15;;;;;;;16.65;9.60;;;;;;;-146.07;100.00;70291.31;10417373;28;20446;-76
2023/05/05 01:54:18;;;;;;;19.92;10.27;;;;;;;-146.07;100.00;70291.31;10398675;28;20031;-75
2023/05/05 01:59:19;;;;;;;17.63;8.57;;;;;;;-146.07;100.00;70291.31;10416495;28;20483;-75
2023/05/05 02:04:21;;;;;;;20.08;9.88;;;;;;;-146.07;100.00;70291.31;10416384;28;20033;-75
2023/05/05 02:09:24;;;;;;;19.20;10.30;;;;;;;-146.07;100.00;70291.31;10416148;28;20116;-76
2023/05/05 02:14:28;;;;;;;17.70;9.20;;;;;;;-146.07;100.00;70291.31;10415942;28;20025;-75
2023/05/05 02:19:33;;;;;;;19.50;9.45;;;;;;;-146.07;100.00;70291.31;10416095;28;20025;-76
2023/05/05 02:24:34;;;;;;;17.88;9.27;;;;;;;-146.07;100.00;70291.31;10415650;28;20127;-75
2023/05/05 02:29:43;;;;;;;13.95;7.68;;;;;;;-146.07;100.00;70291.31;10416189;28;20115;-75
2023/05/05 02:34:46;;;;;;;13.60;8.07;;;;;;;-146.07;100.00;70291.31;10396752;28;20031;-75
2023/05/05 02:39:59;;;;;;;15.23;8.95;;;;;;;-146.07;100.00;70291.31;10390353;28;20231;-75
2023/05/05 02:45:06;;;;;;;17.52;9.77;;;;;;;-146.07;100.00;70291.31;10414949;28;20082;-76
2023/05/05 02:50:07;;;;;;;13.40;7.70;;;;;;;-146.07;100.00;70291.31;10415199;28;20111;-75
2023/05/05 02:55:09;;;;;;;12.77;7.95;;;;;;;-146.07;100.00;70291.31;10414442;28;20103;-75
2023/05/05 03:00:21;;;;;;;25.35;9.70;;;;;;;-146.07;100.00;70291.31;10414324;28;20119;-75
2023/05/05 03:05:26;;;;;;;12.60;7.43;;;;;;;-146.07;100.00;70291.31;10413868;28;20056;-75
2023/05/05 03:10:31;;;;;;;13.93;7.22;;;;;;;-146.07;100.00;70291.31;10414133;28;20475;-76
2023/05/05 03:15:43;;;;;;;10.18;6.20;;;;;;;-146.07;100.00;70291.31;10414627;28;20025;-76
2023/05/05 03:20:44;;;;;;;11.85;6.13;;;;;;;-146.07;100.00;70291.31;10412663;28;20594;-76
2023/05/05 03:25:46;;;;;;;9.18;5.78;;;;;;;-146.07;100.00;70291.31;10414394;28;20379;-76
2023/05/05 03:30:47;;;;;;;9.35;5.15;;;;;;;-146.07;100.00;70291.31;10413642;28;20032;-75
2023/05/05 03:35:47;;;;;;;11.02;6.13;;;;;;;-146.07;100.00;70291.31;10414037;28;20032;-75
2023/05/05 03:40:48;;;;;;;9.35;5.03;;;;;;;-146.07;100.00;70291.31;10398585;28;20049;-75
2023/05/05 03:45:49;;;;;;;9.00;5.70;;;;;;;-146.07;100.00;70291.31;10416024;28;20163;-75
2023/05/05 03:50:49;;;;;;;14.23;5.88;;;;;;;-146.07;100.00;70291.31;10421306;28;20543;-76
2023/05/05 03:55:51;;;;;;;8.68;5.32;;;;;;;-146.07;100.00;70291.31;10421484;28;20492;-76
2023/05/05 04:00:51;;;;;;;7.72;5.28;;;;;;;-146.07;100.00;70291.31;10420645;28;20603;-77
2023/05/05 04:05:52;;;;;;;11.93;4.15;;;;;;;-146.07;100.00;70291.31;10421359;28;20529;-76
2023/05/05 04:10:52;;;;;;;10.13;5.03;;;;;;;-146.07;100.00;70291.31;10419757;28;20056;-75
2023/05/05 04:15:53;;;;;;;11.13;5.80;;;;;;;-146.07;100.00;70291.31;10420700;28;20276;-75
2023/05/05 04:20:53;;;;;;;11.88;5.45;;;;;;;-146.07;100.00;70291.31;10439438;28;20029;-75
2023/05/05 04:25:57;;;;;;;12.13;6.00;;;;;;;-146.07;100.00;70291.31;10428117;28;20501;-75
2023/05/05 04:30:59;;;;;;;16.50;6.93;;;;;;;-146.07;100.00;70291.31;10417832;28;20021;-77
2023/05/05 04:36:00;;;;;;;15.40;5.90;;;;;;;-146.07;100.00;70291.31;10420022;28;20060;-77
2023/05/05 04:41:05;;;;;;;14.15;5.97;;;;;;;-146.07;100.00;70291.31;10416717;28;20127;-77
2023/05/05 04:46:05;;;;;;;12.80;6.55;;;;;;;-146.07;100.00;70291.31;10408316;28;20491;-78
2023/05/05 04:51:06;;;;;;;12.55;7.45;;;;;;;-146.07;100.00;70291.31;10421240;28;20430;-78
2023/05/05 04:56:06;;;;;;;11.85;6.15;;;;;;;-146.07;100.00;70291.31;10420455;28;20021;-78
2023/05/05 05:01:07;;;;;;;12.65;7.22;;;;;;;-146.07;100.00;70291.31;10421060;28;20185;-78
2023/05/05 05:06:08;;;;;;;15.75;7.88;;;;;;;-146.07;100.00;70291.31;10402392;28;20397;-79
2023/05/05 05:11:09;;;;;;;11.25;7.32;;;;;;;-146.07;100.00;70291.31;10420101;28;20068;-78
2023/05/05 05:16:10;;;;;;;10.35;7.25;;;;;;;-146.07;100.00;70291.31;10392802;28;20021;-79
2023/05/05 05:21:14;;;;;;;16.77;7.53;;;;;;;-146.07;100.00;70291.31;10407891;28;20086;-78
2023/05/05 05:26:19;;;;;;;19.25;9.25;;;;;;;-146.07;100.00;70291.31;10428686;28;20120;-77
2023/05/05 05:31:20;;;;;;;18.65;9.02;;;;;;;-146.07;100.00;70291.31;10415901;28;20414;-77
2023/05/05 05:36:20;;;;;;;24.65;10.52;;;;;;;-146.07;100.00;70291.31;10416047;28;20111;-77
2023/05/05 05:41:23;;;;;;;16.65;9.93;;;;;;;-146.07;100.00;70291.31;10414227;28;20049;-77
2023/05/05 05:46:24;;;;;;;16.13;6.85;;;;;;;-146.07;100.00;70291.31;10414071;28;20147;-77
2023/05/05 05:51:25;;;;;;;24.13;6.97;;;;;;;-146.07;100.00;70291.31;10414735;28;20040;-76
2023/05/05 05:56:25;;;;;;;8.18;5.10;;;;;;;-146.07;100.00;70291.31;10417030;28;20369;-77
2023/05/05 06:01:26;;;;;;;7.63;4.03;;;;;;;-146.07;100.00;70291.31;10415844;28;20060;-77
2023/05/05 06:06:26;;;;;;;7.93;4.95;;;;;;;-146.07;100.00;70291.31;10415627;28;20426;-78
2023/05/05 06:11:27;;;;;;;13.85;5.65;;;;;;;-146.07;100.00;70291.31;10414788;28;20029;-77
2023/05/05 06:16:27;;;;;;;8.48;5.43;;;;;;;-146.07;100.00;70291.31;10415660;28;20403;-77
2023/05/05 06:21:28;;;;;;;10.10;4.17;;;;;;;-146.07;100.00;70291.31;10415898;28;20120;-77
2023/05/05 06:26:28;;;;;;;3.43;2.47;;;;;;;-146.07;100.00;70291.31;10414694;28;20294;-77
2023/05/05 06:31:29;;;;;;;9.68;3.60;;;;;;;-146.07;100.00;70291.31;10415101;28;20283;-76
2023/05/05 06:36:31;;;;;;;9.32;3.08;;;;;;;-146.07;100.00;70291.31;10414732;28;20141;-76
2023/05/05 06:41:31;;;;;;;4.95;3.28;;;;;;;-146.07;100.00;70291.31;10413411;28;20527;-78
2023/05/05 06:46:32;;;;;;;12.90;5.55;;;;;;;-146.07;100.00;70291.31;10413735;28;20411;-75
2023/05/05 06:51:34;;;;;;;8.30;3.00;;;;;;;-146.07;100.00;70291.31;10413692;28;20088;-77
2023/05/05 06:56:34;;;;;;;13.02;3.88;;;;;;;-146.07;100.00;70291.31;10394809;28;20033;-77
2023/05/05 07:01:35;;;;;;;16.15;2.55;;;;;;;-146.07;100.00;70291.31;10398486;28;20041;-77
2023/05/05 07:06:35;;;;;;;3.25;2.00;;;;;;;-146.07;100.00;70291.31;10371104;28;20452;-75
2023/05/05 07:11:36;;;;;;;5.57;2.55;;;;;;;-146.07;100.00;70291.31;10374404;28;20063;-76
2023/05/05 07:16:37;;;;;;;12.38;3.10;;;;;;;-146.07;100.00;70291.31;10366533;28;20159;-73
2023/05/05 07:21:38;;;;;;;5.22;2.28;;;;;;;-146.07;100.00;70291.31;10377841;28;20043;-77
2023/05/05 07:26:39;;;;;;;7.53;3.72;;;;;;;-146.07;100.00;70291.31;10389743;28;20025;-73
2023/05/05 07:31:39;;;;;;;3.28;1.92;;;;;;;-146.07;100.00;70291.31;10383964;28;20033;-72
2023/05/05 07:36:40;;;;;;;2.75;2.03;;;;;;;-146.07;100.00;70291.31;10388298;28;20063;-71
2023/05/05 07:41:49;;;;;;;2.90;1.98;;;;;;;-146.07;100.00;70291.31;10399438;28;20053;-88
2023/05/05 07:46:49;;;;;;;6.32;2.20;;;;;;;-146.07;100.00;70291.31;10391872;28;20048;-80
2023/05/05 07:51:50;;;;;;;9.20;3.00;;;;;;;-146.07;100.00;70291.31;10392376;28;20056;-81
2023/05/05 07:56:50;;;;;;;4.55;2.53;;;;;;;-146.07;100.00;70291.31;10388645;28;20287;-78
2023/05/05 08:01:50;;;;;;;11.88;3.17;;;;;;;-146.07;100.00;70291.31;10388540;28;20063;-79
2023/05/05 08:06:51;;;;;;;10.80;2.80;;;;;;;-146.07;100.00;70291.31;10382819;28;20119;-76
2023/05/05 08:11:51;;;;;;;3.78;1.90;;;;;;;-146.07;100.00;70291.31;10363980;28;20465;-75
2023/05/05 08:16:52;;;;;;;2.50;1.87;;;;;;;-146.07;100.00;70291.31;10382480;28;20033;-70
2023/05/05 08:21:52;;;;;;;4.40;1.57;;;;;;;-146.07;100.00;70291.31;10407045;28;20287;-74
2023/05/05 08:26:54;;;;;;;4.57;1.70;;;;;;;-146.07;100.00;70291.31;10406114;28;20622;-74
2023/05/05 08:31:55;;;;;;;2.45;1.33;;;;;;;-146.07;100.00;70291.31;10408015;28;20370;-73
2023/05/05 08:36:55;;;;;;;2.72;1.33;;;;;;;-146.07;100.00;70291.31;10406215;28;20025;-72
2023/05/05 08:41:56;;;;;;;2.25;1.77;;;;;;;-146.07;100.00;70291.31;10404700;28;20589;-72
2023/05/05 08:46:59;;;;;;;8.00;1.88;;;;;;;-146.07;100.00;70291.31;10402972;28;20061;-76
2023/05/05 08:52:02;;;;;;;7.50;1.55;;;;;;;-146.07;100.00;70291.31;10405065;28;20025;-75
2023/05/05 08:57:07;;;;;;;4.65;2.17;;;;;;;-146.07;100.00;70291.31;10402104;28;20355;-73
2023/05/05 09:02:09;;;;;;;2.00;1.42;;;;;;;-146.07;100.00;70291.31;10406451;28;20043;-74
2023/05/05 09:07:10;;;;;;;3.05;1.08;;;;;;;-146.07;100.00;70291.31;10402102;28;20025;-73
2023/05/05 09:12:10;;;;;;;3.13;1.77;;;;;;;-146.07;100.00;70291.31;10401927;28;20028;-76
2023/05/05 09:17:25;;;;;;;3.42;1.17;;;;;;;-146.07;100.00;70291.31;10407457;28;20035;-76
2023/05/05 09:22:38;;;;;;;2.90;2.30;;;;;;;-146.07;100.00;70291.31;10399071;28;20486;-75
2023/05/05 09:27:40;;;;;;;5.20;2.40;;;;;;;-146.07;100.00;70291.31;10402867;28;20048;-76
2023/05/05 09:32:46;;;;;;;3.78;1.95;;;;;;;-146.07;100.00;70291.31;10415635;28;20467;-76
2023/05/05 09:37:47;;;;;;;5.80;2.00;;;;;;;-146.07;100.00;70291.31;10403029;28;20037;-76
2023/05/05 09:42:47;;;;;;;4.05;1.55;;;;;;;-146.07;100.00;70291.31;10402803;28;20029;-77
2023/05/05 09:47:48;;;;;;;3.58;1.35;;;;;;;-146.07;100.00;70291.31;10405793;28;20036;-77
2023/05/05 09:52:56;;;;;;;2.63;1.30;;;;;;;-146.07;100.00;70291.31;10408561;28;21091;-79
2023/05/05 09:58:17;;;;;;;3.92;1.90;;;;;;;-146.07;100.00;70291.31;10404287;28;20032;-74
2023/05/05 10:03:18;;;;;;;2.28;1.50;;;;;;;-146.07;100.00;70291.31;10407423;28;20033;-74
2023/05/05 10:08:22;;;;;;;3.65;1.50;;;;;;;-146.07;100.00;70291.31;10385874;28;20739;-72
2023/05/05 10:13:23;;;;;;;6.25;2.00;;;;;;;-146.07;100.00;70291.31;10398971;28;20094;-81
2023/05/05 10:18:26;;;;;;;6.05;1.63;;;;;;;-146.07;100.00;70291.31;10401224;28;20040;-75
2023/05/05 10:23:34;;;;;;;5.05;1.70;;;;;;;-146.07;100.00;70291.31;10390374;28;20028;-74
2023/05/05 10:28:53;;;;;;;4.03;1.83;;;;;;;-146.07;100.00;70291.31;10400176;28;20472;-72
2023/05/05 10:34:02;;;;;;;5.45;1.40;;;;;;;-146.07;100.00;70291.31;10406939;28;20078;-73
2023/05/05 10:39:05;;;;;;;3.00;1.70;;;;;;;-146.07;100.00;70291.31;10388033;28;20033;-74
2023/05/05 10:44:09;;;;;;;5.30;1.70;;;;;;;-146.07;100.00;70291.31;10326347;28;20436;-74
2023/05/05 10:49:19;;;;;;;3.10;1.27;;;;;;;-146.07;100.00;70291.31;10321702;28;20447;-71
2023/05/05 10:54:51;;;;;;;3.53;1.30;;;;;;;-146.07;100.00;70291.31;10318460;28;20033;-70
2023/05/05 11:00:05;;;;;;;4.28;1.17;;;;;;;-146.07;100.00;70291.31;10299993;28;20361;-75
2023/05/05 11:05:09;;;;;;;2.22;1.30;;;;;;;-146.07;100.00;70291.31;10321900;28;20017;-77
2023/05/05 11:10:11;;;;;;;2.88;1.20;;;;;;;-146.07;100.00;70291.31;10320930;28;20389;-75
2023/05/05 11:15:29;;;;;;;2.05;1.13;;;;;;;-146.07;100.00;70291.31;10318328;28;20028;-75
2023/05/05 11:20:39;;;;;;;4.65;1.73;;;;;;;-146.07;100.00;70291.31;10304402;28;20441;-75
2023/05/05 11:25:43;;;;;;;1.67;1.45;;;;;;;-146.07;100.00;70291.31;10319315;28;20023;-74
2023/05/05 11:30:54;;;;;;;3.25;1.70;;;;;;;-146.07;100.00;70291.31;10327451;28;20056;-79
2023/05/05 11:36:20;;;;;;;3.53;1.52;;;;;;;-146.07;100.00;70291.31;10369925;28;20120;-86
2023/05/05 11:41:36;;;;;;;3.40;1.45;;;;;;;-146.07;100.00;70291.31;10382099;28;20084;-83
2023/05/05 11:46:49;;;;;;;1.90;1.50;;;;;;;-146.07;100.00;70291.31;10369797;28;20026;-88
2023/05/05 11:51:56;;;;;;;6.35;2.33;;;;;;;-146.07;100.00;70291.31;10359425;28;20468;-73
2023/05/05 11:57:00;;;;;;;1.70;1.17;;;;;;;-146.07;100.00;70291.31;10358562;28;20041;-75
2023/05/05 12:02:02;;;;;;;7.07;1.52;;;;;;;-146.07;100.00;70291.31;10362165;28;20034;-72
2023/05/05 12:07:02;;;;;;;2.63;1.77;;;;;;;-146.07;100.00;70291.31;10358568;28;20526;-72
2023/05/05 12:12:03;;;;;;;1.92;1.60;;;;;;;-146.07;100.00;70291.31;10362817;28;20055;-73
2023/05/05 12:17:07;;;;;;;3.45;1.60;;;;;;;-146.07;100.00;70291.31;10371037;28;20087;-74
2023/05/05 12:22:07;;;;;;;4.03;1.52;;;;;;;-146.07;100.00;70291.31;10369567;28;20029;-70
2023/05/05 12:27:09;;;;;;;4.45;2.17;;;;;;;-146.07;100.00;70291.31;10369684;28;20453;-72
2023/05/05 12:32:20;;;;;;;2.28;1.38;;;;;;;-146.07;100.00;70291.31;10385594;28;20255;-74
2023/05/05 12:37:22;;;;;;;3.33;1.38;;;;;;;-146.07;100.00;70291.31;10375677;28;20396;-78
2023/05/05 12:42:25;;;;;;;2.72;1.30;;;;;;;-146.07;100.00;70291.31;10411655;28;20428;-77
2023/05/05 12:47:30;;;;;;;8.93;1.75;;;;;;;-146.07;100.00;70291.31;10403473;28;20107;-77
2023/05/05 12:52:42;;;;;;;1.90;1.45;;;;;;;-146.07;100.00;70291.31;10390781;28;20399;-76
2023/05/05 12:58:09;;;;;;;4.72;1.65;;;;;;;-146.07;100.00;70291.31;10386031;28;20040;-75
2023/05/05 13:03:19;;;;;;;1.80;1.65;;;;;;;-146.07;100.00;70291.31;10403880;28;20040;-77
2023/05/05 13:08:19;;;;;;;3.35;2.58;;;;;;;-146.07;100.00;70291.31;10409854;28;20491;-77
2023/05/05 13:13:20;;;;;;;2.70;2.33;;;;;;;-146.07;100.00;70291.31;10404537;28;20052;-76
2023/05/05 13:18:20;;;;;;;3.00;2.00;;;;;;;-146.07;100.00;70291.31;10406739;28;20685;-75
2023/05/05 13:23:20;;;;;;;6.30;1.90;;;;;;;-146.07;100.00;70291.31;10407698;28;20079;-77
2023/05/05 13:28:21;;;;;;;2.80;1.70;;;;;;;-146.07;100.00;70291.31;10404995;28;20636;-75
2023/05/05 13:33:21;;;;;;;2.63;1.60;;;;;;;-146.07;100.00;70291.31;10402125;28;20303;-81
2023/05/05 13:38:22;;;;;;;9.05;2.40;;;;;;;-146.07;100.00;70291.31;10400685;28;20064;-73
2023/05/05 13:43:22;;;;;;;4.35;1.90;;;;;;;-146.07;100.00;70291.31;10407655;28;20063;-78
2023/05/05 13:48:23;;;;;;;2.05;1.63;;;;;;;-146.07;100.00;70291.31;10402780;28;20158;-75
2023/05/05 13:53:23;;;;;;;6.60;2.53;;;;;;;16.88;85.24;94926.44;10407799;28;20451;-78
2023/05/05 13:58:24;;;;;;;3.05;2.13;;;;;;;16.87;80.57;94924.81;10394077;28;20065;-77
2023/05/05 14:03:24;;;;;;;3.33;2.53;;;;;;;16.80;83.13;94920.91;10408840;28;20553;-76
2023/05/05 14:08:25;;;;;;;3.80;2.35;;;;;;;16.89;91.59;94911.75;10405383;28;20037;-78
2023/05/05 14:13:25;;;;;;;3.65;1.98;;;;;;;16.85;91.84;94916.16;10405268;28;20029;-76
2023/05/05 14:18:27;;;;;;;3.63;2.30;;;;;;;17.14;88.10;94912.22;10403473;28;20033;-85
2023/05/05 14:23:27;;;;;;;5.03;2.22;;;;;;;17.25;91.42;94913.56;10384612;28;20083;-81
2023/05/05 14:28:27;;;;;;;2.83;1.83;;;;;;;17.08;77.94;94906.13;10410307;28;20156;-75
2023/05/05 14:33:28;;;;;;;3.60;2.15;;;;;;;17.08;81.14;94908.06;10399830;28;20291;-71
2023/05/05 14:38:28;;;;;;;3.30;2.27;;;;;;;16.95;84.06;94908.91;10397256;28;20610;-76
2023/05/05 14:43:29;;;;;;;3.83;2.57;;;;;;;-146.07;100.00;70291.31;10403052;28;20029;-77
2023/05/05 14:48:29;;;;;;;5.53;2.27;;;;;;;-146.07;100.00;70291.31;10397532;28;20132;-76
2023/05/05 14:53:30;;;;;;;3.70;2.53;;;;;;;-146.07;100.00;70291.31;10404978;28;20478;-73
2023/05/05 14:58:30;;;;;;;3.63;2.20;;;;;;;-146.07;100.00;70291.31;10389844;28;20036;-75
2023/05/05 15:03:31;;;;;;;4.70;2.22;;;;;;;-146.07;100.00;70291.31;10401343;28;20393;-75
2023/05/05 15:08:32;;;;;;;3.42;2.10;;;;;;;-146.07;100.00;70291.31;10399551;28;20025;-78
2023/05/05 15:13:32;;;;;;;3.90;2.20;;;;;;;-146.07;100.00;70291.31;10399357;28;20017;-74
2023/05/05 15:18:32;;;;;;;8.50;4.93;;;;;;;-146.07;100.00;70291.31;10394388;28;20922;-75
2023/05/05 15:23:33;;;;;;;4.47;2.63;;;;;;;-146.07;100.00;70291.31;10400219;28;20274;-75
2023/05/05 15:28:34;;;;;;;95.13;38.13;;;;;;;-146.07;100.00;70291.31;10400799;28;20021;-75
2023/05/05 15:33:34;;;;;;;100.68;38.85;;;;;;;-146.07;100.00;70291.31;10403652;28;20364;-75
2023/05/05 15:38:41;;;;;;;89.85;30.30;;;;;;;-146.07;100.00;70291.31;10392039;28;20046;-75
2023/05/05 15:43:41;;;;;;;155.85;62.38;;;;;;;-146.07;100.00;70291.31;10394573;28;20025;-75
2023/05/05 15:48:42;;;;;;;4.05;2.97;;;;;;;-146.07;100.00;70291.31;10412754;28;20026;-76
2023/05/05 15:53:42;;;;;;;4.57;2.30;;;;;;;-146.07;100.00;70291.31;10409781;28;20078;-77
2023/05/05 15:58:42;;;;;;;4.27;2.60;;;;;;;-146.07;100.00;70291.31;10398494;28;20288;-77
2023/05/05 16:03:43;;;;;;;6.27;2.63;;;;;;;-146.07;100.00;70291.31;10412339;28;20655;-75
2023/05/05 16:08:46;;;;;;;5.10;2.53;;;;;;;-146.07;100.00;70291.31;10395805;28;20024;-75
2023/05/05 16:13:46;;;;;;;2.72;2.08;;;;;;;-146.07;100.00;70291.31;10397434;28;20040;-75
2023/05/05 16:18:47;;;;;;;8.07;3.63;;;;;;;-146.07;100.00;70291.31;10414088;28;20021;-75
2023/05/05 16:23:47;;;;;;;5.72;2.72;;;;;;;-146.07;100.00;70291.31;10405391;28;20354;-75
2023/05/05 16:28:48;;;;;;;3.17;2.83;;;;;;;-146.07;100.00;70291.31;10412477;28;20544;-75
2023/05/05 16:33:48;;;;;;;3.30;2.50;;;;;;;-146.07;100.00;70291.31;10405652;28;20413;-75
2023/05/05 16:38:48;;;;;;;5.75;2.75;;;;;;;-146.07;100.00;70291.31;10406607;28;20033;-76
2023/05/05 16:43:49;;;;;;;6.87;2.93;;;;;;;-146.07;100.00;70291.31;10405143;28;20083;-75
2023/05/05 16:48:50;;;;;;;7.80;5.75;;;;;;;-146.07;100.00;70291.31;10405211;28;20009;-75
2023/05/05 16:53:50;;;;;;;4.53;3.38;;;;;;;-146.07;100.00;70291.31;10403528;28;20025;-75
2023/05/05 16:58:51;;;;;;;7.17;4.03;;;;;;;-146.07;100.00;70291.31;10404689;28;20033;-75
2023/05/05 17:03:54;;;;;;;4.13;3.63;;;;;;;-146.07;100.00;70291.31;10406685;28;20279;-75
2023/05/05 17:08:54;;;;;;;6.05;3.70;;;;;;;-146.07;100.00;70291.31;10380372;28;20511;-76
2023/05/05 17:13:55;;;;;;;4.47;3.40;;;;;;;-146.07;100.00;70291.31;10404440;28;20535;-76
2023/05/05 17:18:55;;;;;;;4.72;3.33;;;;;;;-146.07;100.00;70291.31;10402262;28;20020;-76
2023/05/05 17:23:55;;;;;;;5.00;3.83;;;;;;;-146.07;100.00;70291.31;10406504;28;20119;-76
2023/05/05 17:28:56;;;;;;;8.53;3.67;;;;;;;-146.07;100.00;70291.31;10398824;28;20527;-76
2023/05/05 17:33:56;;;;;;;5.07;3.47;;;;;;;-146.07;100.00;70291.31;10399125;28;20026;-76
2023/05/05 17:38:57;;;;;;;5.17;4.03;;;;;;;-146.07;100.00;70291.31;10403292;28;20052;-76
2023/05/05 17:43:58;;;;;;;6.10;3.70;;;;;;;-146.07;100.00;70291.31;10401032;28;20275;-76
2023/05/05 17:48:59;;;;;;;8.65;4.40;;;;;;;-146.07;100.00;70291.31;10394614;28;20013;-76
2023/05/05 17:53:59;;;;;;;7.32;4.90;;;;;;;-146.07;100.00;70291.31;10399373;28;20025;-76
2023/05/05 17:59:00;;;;;;;7.03;5.80;;;;;;;-146.07;100.00;70291.31;10402513;28;20021;-75
2023/05/05 18:04:00;;;;;;;7.93;6.15;;;;;;;-146.07;100.00;70291.31;10403309;28;20178;-75
2023/05/05 18:09:01;;;;;;;7.95;5.20;;;;;;;-146.07;100.00;70291.31;10395987;28;20474;-75
2023/05/05 18:14:01;;;;;;;6.72;4.88;;;;;;;-146.07;100.00;70291.31;10395523;28;20408;-75
2023/05/05 18:19:01;;;;;;;7.60;4.77;;;;;;;-146.07;100.00;70291.31;10400692;28;20167;-76
2023/05/05 18:24:02;;;;;;;7.63;5.43;;;;;;;-146.07;100.00;70291.31;10398522;28;20281;-76
2023/05/05 18:29:03;;;;;;;7.18;4.80;;;;;;;-146.07;100.00;70291.31;10399134;28;20456;-75
2023/05/05 18:34:03;;;;;;;10.45;5.22;;;;;;;-146.07;100.00;70291.31;10397892;28;20029;-75
2023/05/05 18:39:04;;;;;;;7.67;5.23;;;;;;;-146.07;100.00;70291.31;10403219;28;20033;-75
2023/05/05 18:44:04;;;;;;;5.23;4.20;;;;;;;-146.07;100.00;70291.31;10397191;28;20466;-75
2023/05/05 18:49:05;;;;;;;7.80;5.03;;;;;;;-146.07;100.00;70291.31;10403983;28;20018;-75
2023/05/05 18:54:05;;;;;;;12.18;5.47;;;;;;;-146.07;100.00;70291.31;10395750;28;20304;-75
2023/05/05 18:59:06;;;;;;;11.10;6.20;;;;;;;-146.07;100.00;70291.31;10402729;28;20357;-75
2023/05/05 19:04:07;;;;;;;14.48;6.20;;;;;;;-146.07;100.00;70291.31;10400735;28;20033;-76
2023/05/05 19:09:09;;;;;;;10.40;5.72;;;;;;;-146.07;100.00;70291.31;10397712;28;20380;-74
2023/05/05 19:14:09;;;;;;;12.55;7.32;;;;;;;-146.07;100.00;70291.31;10395550;28;20044;-74
2023/05/05 19:19:10;;;;;;;11.98;6.80;;;;;;;-146.07;100.00;70291.31;10397911;28;20021;-75
2023/05/05 19:24:10;;;;;;;11.43;7.43;;;;;;;-146.07;100.00;70291.31;10356471;28;20025;-74
2023/05/05 19:29:11;;;;;;;12.60;8.20;;;;;;;-146.07;100.00;70291.31;10308035;28;20267;-75
2023/05/05 19:34:11;;;;;;;15.43;8.18;;;;;;;-146.07;100.00;70291.31;10330859;28;20442;-75
2023/05/05 19:39:12;;;;;;;14.45;7.72;;;;;;;-146.07;100.00;70291.31;10334959;28;20067;-75
2023/05/05 19:44:12;;;;;;;13.07;9.20;;;;;;;-146.07;100.00;70291.31;10391974;28;20040;-75
2023/05/05 19:49:13;;;;;;;16.27;8.77;;;;;;;-146.07;100.00;70291.31;10394176;28;20313;-75
2023/05/05 19:54:13;;;;;;;16.92;8.95;;;;;;;-146.07;100.00;70291.31;10398561;28;20025;-74
2023/05/05 19:59:14;;;;;;;16.23;9.07;;;;;;;-146.07;100.00;70291.31;10396753;28;20068;-75
2023/05/05 20:04:14;;;;;;;17.97;10.07;;;;;;;-146.07;100.00;70291.31;10387003;28;20272;-71
2023/05/05 20:09:14;;;;;;;15.60;10.43;;;;;;;-146.07;100.00;70291.31;10391041;28;21155;-73
2023/05/05 20:14:15;;;;;;;19.30;10.07;;;;;;;-146.07;100.00;70291.31;10394080;28;20033;-76
2023/05/05 20:19:17;;;;;;;13.45;9.27;;;;;;;-146.07;100.00;70291.31;10391253;28;20048;-75
2023/05/05 20:24:17;;;;;;;19.75;10.60;;;;;;;-146.07;100.00;70291.31;10383089;28;20453;-75
2023/05/05 20:29:19;;;;;;;17.40;10.05;;;;;;;-146.07;100.00;70291.31;10387705;28;20072;-71
2023/05/05 20:34:19;;;;;;;22.83;10.57;;;;;;;-146.07;100.00;70291.31;10422474;28;20029;-74
2023/05/05 20:39:20;;;;;;;17.08;9.38;;;;;;;-146.07;100.00;70291.31;10402078;28;20064;-73
2023/05/05 20:44:20;;;;;;;19.08;12.30;;;;;;;-146.07;100.00;70291.31;10399271;28;20460;-73
2023/05/05 20:49:21;;;;;;;17.75;9.75;;;;;;;-146.07;100.00;70291.31;10401781;28;20040;-72
2023/05/05 20:54:21;;;;;;;16.70;9.73;;;;;;;-146.07;100.00;70291.31;10388579;28;20029;-74
2023/05/05 20:59:22;;;;;;;15.80;9.88;;;;;;;-146.07;100.00;70291.31;10400808;28;20112;-73
2023/05/05 21:04:22;;;;;;;19.92;10.32;;;;;;;-146.07;100.00;70291.31;10405249;28;20041;-74
2023/05/05 21:09:23;;;;;;;16.85;9.65;;;;;;;-146.07;100.00;70291.31;10399097;28;20160;-70
2023/05/05 21:14:23;;;;;;;17.83;9.85;;;;;;;-146.07;100.00;70291.31;10402861;28;20025;-75
2023/05/05 21:19:24;;;;;;;20.88;11.85;;;;;;;-146.07;100.00;70291.31;10391171;28;20025;-71
2023/05/05 21:24:24;;;;;;;15.68;10.27;;;;;;;-146.07;100.00;70291.31;10401185;28;20475;-70
2023/05/05 21:29:25;;;;;;;20.63;11.52;;;;;;;-146.07;100.00;70291.31;10403004;28;20395;-70
2023/05/05 21:34:25;;;;;;;21.83;11.20;;;;;;;-146.07;100.00;70291.31;10400635;28;20020;-71
2023/05/05 21:39:26;;;;;;;19.87;10.80;;;;;;;-146.07;100.00;70291.31;10392028;28;20051;-71
2023/05/05 21:44:27;;;;;;;20.98;12.52;;;;;;;-146.07;100.00;70291.31;10393418;28;20276;-72
2023/05/05 21:49:28;;;;;;;21.80;11.40;;;;;;;-146.07;100.00;70291.31;10402257;28;20020;-76
2023/05/05 21:54:29;;;;;;;24.45;11.82;;;;;;;-146.07;100.00;70291.31;10400747;28;20021;-81
2023/05/05 21:59:29;;;;;;;23.55;12.30;;;;;;;-146.07;100.00;70291.31;10379637;28;20527;-81
2023/05/05 22:04:30;;;;;;;18.65;12.15;;;;;;;-146.07;100.00;70291.31;10414351;28;20040;-79
2023/05/05 22:09:30;;;;;;;25.77;13.98;;;;;;;-146.07;100.00;70291.31;10396113;28;20028;-82
2023/05/05 22:14:30;;;;;;;21.67;12.30;;;;;;;-146.07;100.00;70291.31;10428106;28;20111;-81
2023/05/05 22:19:31;;;;;;;22.05;12.40;;;;;;;-146.07;100.00;70291.31;10411503;28;20275;-79
2023/05/05 22:24:31;;;;;;;23.87;12.33;;;;;;;-146.07;100.00;70291.31;10429277;28;20124;-81
2023/05/05 22:29:32;;;;;;;21.23;11.63;;;;;;;-146.07;100.00;70291.31;10410925;28;20286;-80